首页
METAR-TAF:

METAR-TAF

机场 :

科纳克里国际机场

科納克里, 几内亚

纬度: 09-34N, 经度: 013-37W, 海拔: 26米

当前天气观测

该预报发布于3小时和46分钟前的22:00 UTC
风速8节,风向西
温度 29°C
湿度 84%
气压 1014 hPa
能见度10公里或以上
散云层高于1500英尺
散云层高于11000英尺

METAR: GUCY 122200Z 27008KT 9999 SCT015 SCT110 29/26 Q1014 NOSIG

时间: 01:46 (01:46 UTC)

预报

该预报发布于2小时和46分钟前的23:00 UTC
预报有效从13日的 00点(UTC)到 14日的 06点(UTC)
风速6节,风向西
能见度10公里或以上
散云层高于1500英尺
散云层高于11000英尺
短暂存在
从 13日的 00点(UTC)到 13日的 06点(UTC)
风速14节,风向
能見度: 4000
多云层高于1200英尺
少量云层高于2000英尺, 积雨云.
阴天层高于9000英尺
雷暴, 大雨
成为
从 13日的 06点(UTC)到 13日的 12点(UTC)
风速3节,风向多变
能見度: 8000
多云层高于1300英尺
阴天层高于10000英尺
小雨,

TAF: GUCY 122300Z 1300/1406 26006KT 9999 SCT015 SCT110 TEMPO 1300/1306 08014KT 4000 +TSRA BKN012 FEW020CB OVC090 BECMG 1306/1312 VRB03KT 8000 -RA BKN013 OVC100

超过4000个机场的气象观测和天气预报(METAR&TAF报告)。

可查询的气象台以黄色和红色小点在地图上表示。

将鼠标移到小点上方,可查看气象台名称。

然后点击查看天气观测和预报。

如需切换地图:点击带黑十字的绿色按钮放大地图;点击带横线的绿色按钮缩小地图;或者点击绿色箭头查看邻近地区的地图。


METAR-TAF: